^^
Station Historical Data
Daily Summary for October 27, 2017 Units:  English    Metric   Both
« Previous Day
Next Day »
Daily Weekly Monthly Yearly Custom
  High: Low: Average:
Temperature: 62.0 °F 42.1 °F 51.5 °F
Dew Point: 46.1 °F 37.5 °F 40.4 °F
Humidity: 85% 42% 68%
Wind Speed: 6.0mph 0.0mph 1.2mph
Wind Gust: 13.0mph - -
Wind- - SSW
Pressure: 30.12 in 29.91 in -
Precipitation: 0.00 in    
Historical Graphs
 
 
Tabular Data for October 27, 2017
Time Temperature Dew Point Pressure Wind Wind Speed Wind Gust Humidity Rainfall Rate (Hourly) Conditions
00:09 48.0 °F 37.6 °F 29.91 in Calm   6.0 mph 67% 0.00 in CLR
00:19 47.6 °F 37.9 °F 29.92 in SW 3.0 mph 8.0 mph 69% 0.00 in CLR
00:29 47.2 °F 37.9 °F 29.92 in SW 1.0 mph 7.0 mph 70% 0.00 in CLR
00:39 46.9 °F 38.4 °F 29.92 in SW 3.0 mph 8.0 mph 72% 0.00 in CLR
00:49 46.7 °F 38.5 °F 29.92 in SW 3.0 mph 8.0 mph 73% 0.00 in CLR
00:59 46.4 °F 38.6 °F 29.92 in SSW 2.0 mph 8.0 mph 74% 0.00 in CLR
01:09 46.1 °F 38.3 °F 29.93 in SW 2.0 mph 9.0 mph 74% 0.00 in CLR
01:19 46.1 °F 38.6 °F 29.93 in South 1.0 mph 7.0 mph 75% 0.00 in CLR
01:29 45.9 °F 38.4 °F 29.94 in SW 2.0 mph 7.0 mph 75% 0.00 in CLR
01:39 46.0 °F 38.8 °F 29.94 in SW 3.0 mph 7.0 mph 76% 0.00 in CLR
01:49 45.7 °F 38.6 °F 29.95 in SSW 1.0 mph 8.0 mph 76% 0.00 in CLR
01:59 45.7 °F 38.9 °F 29.95 in SW 2.0 mph 9.0 mph 77% 0.00 in CLR
02:09 45.7 °F 38.9 °F 29.96 in SW 3.0 mph 8.0 mph 77% 0.00 in CLR
02:19 45.7 °F 38.9 °F 29.97 in SW 1.0 mph 9.0 mph 77% 0.00 in CLR
02:29 45.8 °F 39.0 °F 29.98 in SW 2.0 mph 8.0 mph 77% 0.00 in CLR
02:39 45.8 °F 39.0 °F 29.98 in SW 1.0 mph 7.0 mph 77% 0.00 in CLR
02:49 45.8 °F 38.7 °F 29.98 in SSW 2.0 mph 7.0 mph 76% 0.00 in CLR
02:59 45.6 °F 38.8 °F 29.98 in SW 1.0 mph 5.0 mph 77% 0.00 in CLR
03:09 45.7 °F 38.6 °F 29.98 in SW 1.0 mph 5.0 mph 76% 0.00 in CLR
03:19 45.6 °F 38.5 °F 29.99 in SW 1.0 mph 3.0 mph 76% 0.00 in CLR
03:29 45.7 °F 38.6 °F 29.99 in SSW 1.0 mph 5.0 mph 76% 0.00 in CLR
03:39 45.7 °F 38.6 °F 30.00 in SSW 1.0 mph 6.0 mph 76% 0.00 in CLR
03:49 45.6 °F 38.5 °F 30.00 in SW 1.0 mph 6.0 mph 76% 0.00 in CLR
03:59 45.5 °F 38.4 °F 30.00 in SW 2.0 mph 5.0 mph 76% 0.00 in CLR
04:09 45.3 °F 38.5 °F 30.01 in SW 3.0 mph 8.0 mph 77% 0.00 in CLR
04:19 45.3 °F 38.5 °F 30.01 in WSW 2.0 mph 6.0 mph 77% 0.00 in CLR
04:29 44.9 °F 38.8 °F 30.01 in SSW 2.0 mph 8.0 mph 79% 0.00 in CLR
04:39 44.5 °F 38.7 °F 30.02 in SW 2.0 mph 6.0 mph 80% 0.00 in CLR
04:49 44.1 °F 39.0 °F 30.03 in Calm   6.0 mph 82% 0.00 in CLR
04:59 44.0 °F 38.9 °F 30.03 in SSW 3.0 mph 10.0 mph 82% 0.00 in CLR
05:09 43.7 °F 38.6 °F 30.03 in SW 2.0 mph 5.0 mph 82% 0.00 in CLR
05:19 43.6 °F 38.8 °F 30.03 in SSW 1.0 mph 5.0 mph 83% 0.00 in CLR
05:29 43.5 °F 38.7 °F 30.04 in Calm   6.0 mph 83% 0.00 in CLR
05:39 43.4 °F 38.6 °F 30.05 in SW 1.0 mph 6.0 mph 83% 0.00 in CLR
05:49 43.2 °F 38.4 °F 30.05 in SW 1.0 mph 4.0 mph 83% 0.00 in CLR
05:59 43.0 °F 38.5 °F 30.05 in SSW 1.0 mph 4.0 mph 84% 0.00 in CLR
06:09 42.7 °F 38.2 °F 30.05 in Calm   2.0 mph 84% 0.00 in CLR
06:19 42.4 °F 38.2 °F 30.05 in Calm   1.0 mph 85% 0.00 in CLR
06:29 42.4 °F 38.2 °F 30.06 in SSW 1.0 mph 3.0 mph 85% 0.00 in CLR
06:39 42.5 °F 38.3 °F 30.06 in SSW 1.0 mph 3.0 mph 85% 0.00 in CLR
06:49 42.5 °F 38.0 °F 30.06 in Calm   2.0 mph 84% 0.00 in CLR
06:59 42.4 °F 38.2 °F 30.06 in Calm   3.0 mph 85% 0.00 in CLR
07:09 42.3 °F 38.1 °F 30.07 in SSW 1.0 mph 2.0 mph 85% 0.00 in CLR
07:19 42.1 °F 37.9 °F 30.07 in Calm   3.0 mph 85% 0.00 in CLR
07:29 42.7 °F 37.5 °F 30.07 in South 1.0 mph 4.0 mph 82% 0.00 in CLR
07:39 43.4 °F 37.6 °F 30.08 in Calm   4.0 mph 80% 0.00 in CLR
07:49 43.5 °F 38.1 °F 30.08 in SSW 1.0 mph 4.0 mph 81% 0.00 in CLR
07:59 43.8 °F 38.3 °F 30.08 in SW 1.0 mph 4.0 mph 81% 0.00 in CLR
08:09 43.8 °F 38.4 °F 30.08 in Calm   3.0 mph 81% 0.00 in CLR
08:19 43.9 °F 38.4 °F 30.08 in Calm   2.0 mph 81% 0.00 in CLR
08:29 44.2 °F 38.4 °F 30.08 in Calm   2.0 mph 80% 0.00 in CLR
08:39 44.5 °F 38.7 °F 30.09 in Calm   2.0 mph 80% 0.00 in CLR
08:49 44.8 °F 39.0 °F 30.10 in SSE 1.0 mph 3.0 mph 80% 0.00 in CLR
08:59 45.2 °F 38.7 °F 30.10 in Calm   2.0 mph 78% 0.00 in CLR
09:09 45.5 °F 38.7 °F 30.10 in Calm   4.0 mph 77% 0.00 in CLR
09:19 45.8 °F 38.9 °F 30.11 in SSW 3.0 mph 5.0 mph 77% 0.00 in CLR
09:29 46.4 °F 38.9 °F 30.11 in South 1.0 mph 4.0 mph 75% 0.00 in CLR
09:39 47.6 °F 39.8 °F 30.12 in South 1.0 mph 4.0 mph 74% 0.00 in CLR
09:49 48.6 °F 39.9 °F 30.12 in SSW 3.0 mph 5.0 mph 72% 0.00 in CLR
09:59 49.8 °F 40.7 °F 30.12 in SSE 1.0 mph 3.0 mph 71% 0.00 in CLR
10:09 50.1 °F 40.7 °F 30.12 in SSE 1.0 mph 5.0 mph 70% 0.00 in CLR
10:19 50.9 °F 40.7 °F 30.12 in Calm   5.0 mph 68% 0.00 in CLR
10:29 52.0 °F 41.4 °F 30.11 in SSE 1.0 mph 3.0 mph 67% 0.00 in CLR
10:39 52.2 °F 41.2 °F 30.11 in Calm   3.0 mph 66% 0.00 in CLR
10:49 53.0 °F 41.1 °F 30.11 in Calm   2.0 mph 64% 0.00 in CLR
10:59 53.9 °F 41.2 °F 30.11 in Calm   2.0 mph 62% 0.00 in CLR
11:09 55.1 °F 41.4 °F 30.11 in WNW 2.0 mph 5.0 mph 60% 0.00 in CLR
11:19 54.9 °F 39.9 °F 30.11 in WNW 2.0 mph 6.0 mph 57% 0.00 in CLR
11:29 55.3 °F 40.3 °F 30.11 in Calm   4.0 mph 57% 0.00 in CLR
11:39 56.3 °F 40.8 °F 30.11 in SSW 2.0 mph 6.0 mph 56% 0.00 in CLR
11:49 57.1 °F 41.5 °F 30.11 in SSW 2.0 mph 7.0 mph 56% 0.00 in CLR
11:59 57.3 °F 41.3 °F 30.10 in South 1.0 mph 7.0 mph 55% 0.00 in CLR
12:09 57.6 °F 41.6 °F 30.10 in WSW 1.0 mph 9.0 mph 55% 0.00 in CLR
12:19 58.0 °F 40.5 °F 30.10 in SSW 2.0 mph 8.0 mph 52% 0.00 in CLR
12:29 58.3 °F 39.7 °F 30.10 in SSW 3.0 mph 10.0 mph 50% 0.00 in CLR
12:39 58.2 °F 39.1 °F 30.10 in SSW 5.0 mph 10.0 mph 49% 0.00 in CLR
12:49 58.2 °F 39.1 °F 30.10 in SW 3.0 mph 8.0 mph 49% 0.00 in CLR
12:59 58.9 °F 38.1 °F 30.10 in South 6.0 mph 13.0 mph 46% 0.00 in CLR
13:09 59.0 °F 38.8 °F 30.09 in SW 2.0 mph 10.0 mph 47% 0.00 in CLR
13:19 59.7 °F 38.3 °F 30.09 in SW 3.0 mph 10.0 mph 45% 0.00 in CLR
13:29 59.5 °F 38.1 °F 30.09 in SW 1.0 mph 9.0 mph 45% 0.00 in CLR
13:39 59.9 °F 38.5 °F 30.09 in South 5.0 mph 10.0 mph 45% 0.00 in CLR
13:49 60.0 °F 39.7 °F 30.09 in Calm   8.0 mph 47% 0.00 in CLR
13:59 60.1 °F 39.3 °F 30.09 in SW 2.0 mph 9.0 mph 46% 0.00 in CLR
14:09 60.5 °F 40.7 °F 30.09 in SSW 1.0 mph 9.0 mph 48% 0.00 in CLR
14:19 60.6 °F 40.8 °F 30.08 in SW 2.0 mph 12.0 mph 48% 0.00 in CLR
14:29 60.5 °F 39.6 °F 30.08 in South 5.0 mph 12.0 mph 46% 0.00 in CLR
14:39 60.5 °F 39.6 °F 30.08 in WSW 5.0 mph 8.0 mph 46% 0.00 in CLR
14:49 60.9 °F 38.8 °F 30.08 in SW 2.0 mph 8.0 mph 44% 0.00 in CLR
14:59 61.0 °F 39.5 °F 30.08 in SSW 2.0 mph 7.0 mph 45% 0.00 in CLR
15:09 61.5 °F 39.4 °F 30.08 in SSW 5.0 mph 9.0 mph 44% 0.00 in CLR
15:19 61.4 °F 38.7 °F 30.08 in SW 3.0 mph 9.0 mph 43% 0.00 in CLR
15:29 61.5 °F 39.9 °F 30.08 in South 1.0 mph 9.0 mph 45% 0.00 in CLR
15:39 61.8 °F 39.6 °F 30.08 in SW 2.0 mph 6.0 mph 44% 0.00 in CLR
15:49 61.8 °F 39.0 °F 30.08 in South 3.0 mph 8.0 mph 43% 0.00 in CLR
15:59 61.6 °F 39.5 °F 30.08 in SSW 5.0 mph 9.0 mph 44% 0.00 in CLR
16:09 61.6 °F 39.5 °F 30.08 in SW 1.0 mph 7.0 mph 44% 0.00 in CLR
16:19 62.0 °F 39.3 °F 30.08 in Calm   7.0 mph 43% 0.00 in CLR
16:29 61.8 °F 38.4 °F 30.08 in SW 3.0 mph 9.0 mph 42% 0.00 in CLR
16:39 61.6 °F 38.3 °F 30.08 in SSW 1.0 mph 8.0 mph 42% 0.00 in CLR
16:49 61.6 °F 38.3 °F 30.08 in SSW 2.0 mph 10.0 mph 42% 0.00 in CLR
16:59 61.6 °F 38.3 °F 30.07 in Calm   7.0 mph 42% 0.00 in CLR
17:09 61.7 °F 38.9 °F 30.08 in SSW 5.0 mph 7.0 mph 43% 0.00 in CLR
17:19 61.1 °F 39.6 °F 30.08 in South 1.0 mph 10.0 mph 45% 0.00 in CLR
17:29 60.5 °F 40.2 °F 30.08 in SSW 3.0 mph 8.0 mph 47% 0.00 in CLR
17:39 60.0 °F 40.2 °F 30.08 in Calm   5.0 mph 48% 0.00 in CLR
17:49 58.7 °F 39.6 °F 30.09 in Calm   3.0 mph 49% 0.00 in CLR
17:59 57.9 °F 39.4 °F 30.09 in South 1.0 mph 4.0 mph 50% 0.00 in CLR
18:09 57.3 °F 39.8 °F 30.09 in Calm   2.0 mph 52% 0.00 in CLR
18:19 56.2 °F 40.7 °F 30.09 in Calm   2.0 mph 56% 0.00 in CLR
18:29 55.7 °F 41.1 °F 30.10 in Calm   3.0 mph 58% 0.00 in CLR
18:39 55.1 °F 41.4 °F 30.10 in Calm   2.0 mph 60% 0.00 in CLR
18:49 54.3 °F 41.6 °F 30.10 in Calm   1.0 mph 62% 0.00 in CLR
18:59 54.2 °F 42.7 °F 30.10 in SW 1.0 mph 4.0 mph 65% 0.00 in CLR
19:09 54.2 °F 43.1 °F 30.11 in Calm   3.0 mph 66% 0.00 in CLR
19:19 53.8 °F 43.5 °F 30.11 in Calm   1.0 mph 68% 0.00 in CLR
19:29 53.3 °F 43.4 °F 30.11 in Calm   2.0 mph 69% 0.00 in CLR
19:39 53.2 °F 43.7 °F 30.10 in Calm   1.0 mph 70% 0.00 in CLR
19:49 53.0 °F 44.2 °F 30.10 in Calm   1.0 mph 72% 0.00 in CLR
19:59 52.8 °F 44.4 °F 30.11 in Calm   1.0 mph 73% 0.00 in CLR
20:09 53.0 °F 44.6 °F 30.11 in Calm   2.0 mph 73% 0.00 in CLR
20:19 53.3 °F 44.8 °F 30.11 in Calm   3.0 mph 73% 0.00 in CLR
20:29 53.3 °F 44.9 °F 30.11 in Calm   2.0 mph 73% 0.00 in CLR
20:39 53.0 °F 44.9 °F 30.11 in Calm   2.0 mph 74% 0.00 in CLR
20:49 53.1 °F 45.0 °F 30.11 in Calm   2.0 mph 74% 0.00 in CLR
20:59 52.9 °F 45.2 °F 30.11 in Calm   1.0 mph 75% 0.00 in CLR
21:09 52.5 °F 45.2 °F 30.11 in Calm   1.0 mph 76% 0.00 in CLR
21:19 52.4 °F 45.7 °F 30.11 in Calm   1.0 mph 78% 0.00 in CLR
21:29 52.4 °F 45.7 °F 30.11 in Calm   2.0 mph 78% 0.00 in CLR
21:39 52.4 °F 46.1 °F 30.10 in Calm   2.0 mph 79% 0.00 in CLR
21:49 52.9 °F 45.9 °F 30.11 in South 1.0 mph 4.0 mph 77% 0.00 in CLR
21:59 53.1 °F 45.7 °F 30.11 in SSW 1.0 mph 4.0 mph 76% 0.00 in CLR
22:09 53.2 °F 45.8 °F 30.11 in Calm   3.0 mph 76% 0.00 in CLR
22:19 52.8 °F 45.8 °F 30.11 in Calm   2.0 mph 77% 0.00 in CLR
22:29 52.5 °F 45.5 °F 30.11 in Calm   2.0 mph 77% 0.00 in CLR
22:39 51.6 °F 45.3 °F 30.11 in Calm   2.0 mph 79% 0.00 in CLR
22:49 51.4 °F 45.4 °F 30.11 in Calm   2.0 mph 80% 0.00 in CLR
22:59 51.2 °F 45.6 °F 30.11 in Calm   1.0 mph 81% 0.00 in CLR
23:19 51.1 °F 45.5 °F 30.10 in Calm     81% 0.00 in CLR
23:29 50.8 °F 45.2 °F 30.10 in Calm   1.0 mph 81% 0.00 in CLR
23:39 50.8 °F 45.5 °F 30.10 in Calm     82% 0.00 in CLR
23:49 50.0 °F 45.0 °F 30.10 in Calm     83% 0.00 in CLR
23:59 49.2 °F 44.3 °F 30.10 in Calm     83% 0.00 in CLR
TarryTown NY Weather
Compliments of Weather Underground - 1.75 mb